| time (UTC) | temp F | wind direction | speed MPH | gust MPH | rain 1hr in | rain 24hr in | rain mn in | humidity % | barometer mb |
| 20260507091616 | 47 | 45 | 7.0 | 12.0 | 0.00 | 0.46 | 0.00 | 88 | 1015.2 |
| 20260507090616 | 47 | 45 | 6.0 | 9.0 | 0.00 | 0.47 | 0.00 | 88 | 1015.1 |
| 20260507085616 | 47 | 23 | 4.0 | 5.0 | 0.00 | 0.47 | 0.00 | 88 | 1014.9 |
| 20260507084617 | 47 | 45 | 3.0 | 4.0 | 0.00 | 0.48 | 0.00 | 89 | 1014.9 |
| 20260507083616 | 47 | 68 | 3.0 | 6.0 | 0.00 | 0.48 | 0.00 | 89 | 1014.7 |
| 20260507082616 | 47 | 45 | 7.0 | 10.0 | 0.00 | 0.50 | 0.00 | 90 | 1014.6 |
| 20260507081616 | 46 | 45 | 7.0 | 10.0 | 0.00 | 0.50 | 0.00 | 91 | 1014.6 |
| 20260507080616 | 46 | 23 | 3.0 | 5.0 | 0.00 | 0.51 | 0.00 | 91 | 1014.6 |
| 20260507075616 | 46 | 45 | 6.0 | 9.0 | 0.00 | 0.51 | 0.00 | 91 | 1014.2 |
| 20260507074616 | 46 | 68 | 7.0 | 11.0 | 0.00 | 0.52 | 0.00 | 92 | 1014.2 |
| 20260507073616 | 46 | 45 | 4.0 | 7.0 | 0.00 | 0.52 | 0.00 | 92 | 1014.1 |
| 20260507072616 | 46 | 45 | 7.0 | 10.0 | 0.00 | 0.53 | 0.00 | 93 | 1014.0 |
| 20260507071616 | 46 | 23 | 6.0 | 7.0 | 0.00 | 0.54 | 0.00 | 93 | 1014.0 |
| 20260507070616 | 46 | 23 | 5.0 | 10.0 | 0.00 | 0.55 | 0.00 | 94 | 1013.9 |
| 20260507065616 | 46 | 0 | 3.0 | 4.0 | 0.00 | 0.57 | 0.00 | 94 | 1013.7 |
| 20260507064616 | 46 | 23 | 4.0 | 6.0 | 0.00 | 0.58 | 0.00 | 94 | 1013.7 |
| 20260507063616 | 46 | 0 | 4.0 | 7.0 | 0.00 | 0.59 | 0.00 | 95 | 1013.7 |
| 20260507062616 | 45 | 0 | 6.0 | 9.0 | 0.00 | 0.60 | 0.00 | 95 | 1013.5 |
| 20260507061616 | 45 | 0 | 4.0 | 5.0 | 0.00 | 0.61 | 0.00 | 95 | 1013.5 |
| 20260507060616 | 45 | 0 | 3.0 | 4.0 | 0.00 | 0.62 | 0.00 | 95 | 1013.3 |
| 20260507055616 | 45 | 0 | 3.0 | 4.0 | 0.00 | 0.62 | 0.00 | 95 | 1013.1 |
| 20260507054616 | 45 | 0 | 2.0 | 2.0 | 0.00 | 0.63 | 0.00 | 95 | 1013.1 |
| 20260507053616 | 45 | 338 | 2.0 | 6.0 | 0.00 | 0.64 | 0.00 | 95 | 1013.1 |
| 20260507052616 | 45 | 315 | 2.0 | 3.0 | 0.00 | 0.65 | 0.00 | 95 | 1012.9 |
| 20260507051616 | 45 | 0 | 2.0 | 3.0 | 0.00 | 0.65 | 0.00 | 95 | 1012.9 |
| 20260507050616 | 44 | 338 | 3.0 | 4.0 | 0.00 | 0.66 | 0.00 | 95 | 1012.7 |
| 20260507045616 | 44 | 338 | 3.0 | 4.0 | 0.00 | 0.67 | 0.00 | 95 | 1012.6 |
| 20260507044615 | 44 | 338 | 2.0 | 3.0 | 0.00 | 0.68 | 0.00 | 95 | 1012.6 |
| 20260507043615 | 44 | 0 | 2.0 | 3.0 | 0.00 | 0.70 | 0.00 | 95 | 1012.5 |
| 20260507042615 | 45 | 338 | 3.0 | 4.0 | 0.00 | 0.71 | 0.00 | 95 | 1012.4 |
| 20260507041616 | 45 | 338 | 2.0 | 3.0 | 0.00 | 0.72 | 0.00 | 95 | 1012.4 |
| 20260507040616 | 45 | 338 | 2.0 | 3.0 | 0.00 | 0.73 | 0.00 | 95 | 1012.3 |
| 20260507035615 | 45 | 0 | 2.0 | 3.0 | 0.00 | 0.74 | 0.00 | 95 | 1012.0 |
| 20260507034616 | 45 | 0 | 1.0 | 2.0 | 0.00 | 0.75 | 0.00 | 95 | 1012.0 |
| 20260507033615 | 45 | 0 | 2.0 | 3.0 | 0.00 | 0.76 | 0.00 | 95 | 1012.0 |
| 20260507032616 | 44 | 338 | 1.0 | 2.0 | 0.00 | 0.77 | 0.00 | 95 | 1012.0 |
| 20260507031615 | 44 | 338 | 1.0 | 2.0 | 0.00 | 0.79 | 0.00 | 94 | 1012.0 |
| 20260507030615 | 44 | 338 | 1.0 | 2.0 | 0.00 | 0.80 | 0.00 | 94 | 1012.0 |
| 20260507025615 | 45 | 338 | 1.0 | 2.0 | 0.00 | 0.82 | 0.00 | 94 | 1011.7 |
| 20260507024617 | 45 | 0.0 | 1.0 | 0.00 | 0.84 | 0.00 | 94 | 1011.7 | |
| 20260507023617 | 45 | 338 | 1.0 | 2.0 | 0.00 | 0.86 | 0.00 | 94 | 1011.5 |
| 20260507022617 | 45 | 0.0 | 1.0 | 0.00 | 0.88 | 0.00 | 94 | 1011.5 | |
| 20260507021618 | 45 | 338 | 1.0 | 2.0 | 0.00 | 0.90 | 0.00 | 94 | 1011.5 |
| 20260507020617 | 45 | 338 | 1.0 | 2.0 | 0.00 | 0.92 | 0.00 | 94 | 1011.5 |
| 20260507015617 | 46 | 338 | 2.0 | 3.0 | 0.00 | 0.94 | 0.00 | 94 | 1011.5 |
| 20260507014617 | 46 | 338 | 2.0 | 3.0 | 0.00 | 0.96 | 0.00 | 94 | 1011.5 |
| 20260507013617 | 46 | 0 | 2.0 | 3.0 | 0.00 | 0.98 | 0.00 | 94 | 1011.4 |
| 20260507012617 | 46 | 0.0 | 1.0 | 0.00 | 1.00 | 0.00 | 94 | 1011.3 | |
| 20260507011617 | 46 | 0 | 1.0 | 2.0 | 0.00 | 1.01 | 0.00 | 94 | 1011.3 |
| 20260507010617 | 46 | 0 | 1.0 | 2.0 | 0.00 | 1.02 | 0.00 | 94 | 1011.1 |
| 20260507005617 | 46 | 0 | 1.0 | 2.0 | 0.00 | 1.03 | 0.00 | 94 | 1011.1 |
| 20260507004617 | 46 | 0 | 1.0 | 2.0 | 0.00 | 1.04 | 0.00 | 93 | 1011.1 |
| 20260507003617 | 46 | 338 | 2.0 | 3.0 | 0.00 | 1.04 | 0.00 | 93 | 1011.0 |
| 20260507002617 | 46 | 0 | 1.0 | 2.0 | 0.00 | 1.05 | 0.00 | 93 | 1011.0 |
| 20260507001616 | 46 | 0 | 2.0 | 2.0 | 0.00 | 1.06 | 0.00 | 93 | 1011.0 |
| 20260507000617 | 46 | 0 | 2.0 | 3.0 | 0.00 | 1.06 | 0.00 | 93 | 1011.0 |
| 20260506235616 | 46 | 338 | 3.0 | 4.0 | 0.00 | 1.06 | 0.00 | 93 | 1011.0 |
| 20260506234616 | 46 | 338 | 2.0 | 4.0 | 0.00 | 1.06 | 0.00 | 93 | 1011.0 |
| 20260506233617 | 46 | 338 | 2.0 | 2.0 | 0.00 | 1.06 | 0.00 | 93 | 1011.0 |
| 20260506232617 | 47 | 0 | 3.0 | 4.0 | 0.00 | 1.06 | 0.00 | 93 | 1011.0 |
| 20260506231617 | 47 | 338 | 3.0 | 5.0 | 0.00 | 1.06 | 0.00 | 93 | 1011.0 |
| 20260506230616 | 47 | 0 | 3.0 | 4.0 | 0.00 | 1.06 | 0.00 | 92 | 1011.0 |
| 20260506225616 | 47 | 338 | 2.0 | 3.0 | 0.00 | 1.06 | 0.00 | 92 | 1010.9 |
| 20260506224617 | 47 | 0 | 3.0 | 4.0 | 0.00 | 1.06 | 0.00 | 92 | 1010.9 |
| 20260506223616 | 46 | 338 | 4.0 | 6.0 | 0.00 | 1.06 | 0.00 | 92 | 1010.8 |
| 20260506222616 | 47 | 338 | 2.0 | 3.0 | 0.00 | 1.06 | 0.00 | 92 | 1010.7 |
| 20260506221616 | 46 | 338 | 3.0 | 4.0 | 0.00 | 1.06 | 0.00 | 92 | 1010.7 |
| 20260506220616 | 46 | 338 | 3.0 | 3.0 | 0.00 | 1.06 | 0.00 | 92 | 1010.9 |
| 20260506215616 | 46 | 338 | 4.0 | 5.0 | 0.00 | 1.06 | 1.06 | 92 | 1010.7 |
| 20260506214616 | 46 | 338 | 2.0 | 3.0 | 0.00 | 1.06 | 1.06 | 92 | 1010.7 |
| 20260506213616 | 46 | 338 | 2.0 | 3.0 | 0.00 | 1.06 | 1.06 | 92 | 1010.6 |
| 20260506212616 | 46 | 0 | 2.0 | 4.0 | 0.00 | 1.06 | 1.06 | 93 | 1010.5 |
| 20260506211616 | 46 | 0 | 1.0 | 1.0 | 0.00 | 1.06 | 1.06 | 93 | 1010.5 |
| 20260506210616 | 46 | 0 | 2.0 | 3.0 | 0.00 | 1.06 | 1.06 | 93 | 1010.5 |
| 20260506205615 | 46 | 0 | 2.0 | 4.0 | 0.00 | 1.06 | 1.06 | 93 | 1010.4 |
| 20260506204616 | 46 | 338 | 3.0 | 4.0 | 0.00 | 1.06 | 1.06 | 92 | 1010.4 |
| 20260506203616 | 46 | 338 | 4.0 | 5.0 | 0.00 | 1.06 | 1.06 | 92 | 1010.4 |
| 20260506202615 | 46 | 338 | 3.0 | 5.0 | 0.00 | 1.06 | 1.06 | 92 | 1010.2 |
| 20260506201615 | 47 | 338 | 3.0 | 5.0 | 0.00 | 1.06 | 1.06 | 92 | 1010.2 |
| 20260506200615 | 47 | 338 | 3.0 | 5.0 | 0.00 | 1.06 | 1.06 | 92 | 1010.2 |
| 20260506195615 | 47 | 0 | 3.0 | 4.0 | 0.00 | 1.06 | 1.06 | 92 | 1010.0 |
| 20260506194616 | 47 | 23 | 3.0 | 5.0 | 0.00 | 1.06 | 1.06 | 92 | 1010.0 |
| 20260506193615 | 47 | 0 | 4.0 | 6.0 | 0.00 | 1.06 | 1.06 | 92 | 1010.0 |
| 20260506192617 | 47 | 0 | 3.0 | 5.0 | 0.00 | 1.06 | 1.06 | 92 | 1010.0 |
| 20260506191617 | 47 | 0 | 3.0 | 5.0 | 0.00 | 1.06 | 1.06 | 92 | 1010.0 |
| 20260506190617 | 47 | 0 | 3.0 | 4.0 | 0.00 | 1.06 | 1.06 | 93 | 1009.8 |
| 20260506185617 | 47 | 0 | 3.0 | 5.0 | 0.00 | 1.06 | 1.06 | 93 | 1009.7 |
| 20260506184617 | 47 | 338 | 4.0 | 5.0 | 0.00 | 1.06 | 1.06 | 93 | 1009.7 |
| 20260506183617 | 47 | 0 | 4.0 | 5.0 | 0.00 | 1.06 | 1.06 | 93 | 1009.5 |
| 20260506182617 | 47 | 0 | 4.0 | 6.0 | 0.00 | 1.06 | 1.06 | 93 | 1009.4 |
| 20260506181617 | 47 | 0 | 2.0 | 4.0 | 0.00 | 1.06 | 1.06 | 93 | 1009.4 |
| 20260506180617 | 47 | 0 | 4.0 | 6.0 | 0.00 | 1.06 | 1.06 | 93 | 1009.2 |
| 20260506175617 | 47 | 23 | 5.0 | 6.0 | 0.00 | 1.06 | 1.06 | 93 | 1009.1 |
| 20260506174617 | 47 | 23 | 5.0 | 8.0 | 0.00 | 1.06 | 1.06 | 94 | 1009.1 |
| 20260506173617 | 47 | 23 | 5.0 | 7.0 | 0.01 | 1.06 | 1.06 | 94 | 1009.0 |
| 20260506172617 | 47 | 23 | 5.0 | 10.0 | 0.01 | 1.06 | 1.06 | 94 | 1008.9 |
| 20260506171617 | 47 | 23 | 8.0 | 10.0 | 0.01 | 1.06 | 1.06 | 94 | 1008.9 |
| 20260506170617 | 47 | 23 | 7.0 | 11.0 | 0.02 | 1.06 | 1.06 | 94 | 1008.9 |
| 20260506165617 | 47 | 23 | 5.0 | 8.0 | 0.02 | 1.06 | 1.06 | 94 | 1008.9 |
| 20260506164617 | 48 | 23 | 4.0 | 5.0 | 0.02 | 1.06 | 1.06 | 95 | 1008.9 |
| 20260506163616 | 47 | 0 | 5.0 | 7.0 | 0.01 | 1.05 | 1.05 | 95 | 1008.9 |
| 20260506162616 | 47 | 23 | 5.0 | 7.0 | 0.02 | 1.05 | 1.05 | 95 | 1008.9 |
| 20260506161616 | 47 | 0 | 4.0 | 6.0 | 0.02 | 1.05 | 1.05 | 95 | 1008.9 |
| 20260506160616 | 47 | 0 | 3.0 | 4.0 | 0.01 | 1.04 | 1.04 | 95 | 1008.9 |
| 20260506155616 | 46 | 23 | 3.0 | 5.0 | 0.02 | 1.04 | 1.04 | 95 | 1008.9 |
| 20260506154617 | 46 | 23 | 5.0 | 7.0 | 0.03 | 1.04 | 1.04 | 95 | 1008.9 |
| 20260506153616 | 46 | 45 | 5.0 | 7.0 | 0.03 | 1.04 | 1.04 | 94 | 1008.9 |
| 20260506152616 | 46 | 23 | 6.0 | 10.0 | 0.03 | 1.03 | 1.03 | 94 | 1008.9 |
| 20260506151617 | 46 | 23 | 5.0 | 11.0 | 0.05 | 1.03 | 1.03 | 94 | 1008.9 |
| 20260506150616 | 45 | 45 | 9.0 | 14.0 | 0.06 | 1.03 | 1.03 | 95 | 1008.9 |
| 20260506145616 | 45 | 23 | 11.0 | 15.0 | 0.06 | 1.02 | 1.02 | 95 | 1008.9 |
| 20260506144616 | 46 | 23 | 8.0 | 13.0 | 0.07 | 1.01 | 1.01 | 95 | 1008.9 |
| 20260506143616 | 46 | 45 | 8.0 | 12.0 | 0.08 | 1.01 | 1.01 | 95 | 1008.9 |
| 20260506142616 | 45 | 23 | 5.0 | 7.0 | 0.08 | 1.00 | 1.00 | 95 | 1008.9 |
| 20260506141616 | 45 | 23 | 5.0 | 9.0 | 0.07 | 0.98 | 0.98 | 95 | 1008.9 |
| 20260506140616 | 45 | 45 | 6.0 | 10.0 | 0.06 | 0.97 | 0.97 | 95 | 1008.9 |
| 20260506135616 | 45 | 45 | 7.0 | 12.0 | 0.07 | 0.96 | 0.96 | 95 | 1008.8 |
| 20260506134616 | 46 | 45 | 9.0 | 14.0 | 0.06 | 0.94 | 0.94 | 95 | 1008.8 |
| 20260506133616 | 46 | 0 | 4.0 | 6.0 | 0.07 | 0.93 | 0.93 | 95 | 1008.6 |
| 20260506132616 | 46 | 0 | 4.0 | 5.0 | 0.08 | 0.92 | 0.92 | 95 | 1008.4 |
| 20260506131615 | 46 | 0 | 4.0 | 6.0 | 0.08 | 0.91 | 0.91 | 95 | 1008.4 |
| 20260506130616 | 46 | 0 | 3.0 | 4.0 | 0.10 | 0.91 | 0.91 | 95 | 1008.4 |
| 20260506125616 | 46 | 23 | 6.0 | 8.0 | 0.09 | 0.89 | 0.89 | 95 | 1008.4 |
| 20260506124615 | 46 | 45 | 5.0 | 7.0 | 0.10 | 0.88 | 0.88 | 95 | 1008.4 |
| 20260506123616 | 46 | 23 | 4.0 | 7.0 | 0.09 | 0.86 | 0.86 | 95 | 1008.4 |
| 20260506122615 | 46 | 23 | 4.0 | 5.0 | 0.09 | 0.85 | 0.84 | 95 | 1008.4 |
| 20260506121616 | 46 | 45 | 8.0 | 13.0 | 0.09 | 0.84 | 0.83 | 95 | 1008.4 |
| 20260506120615 | 46 | 23 | 9.0 | 12.0 | 0.09 | 0.82 | 0.81 | 95 | 1008.3 |
| 20260506115615 | 46 | 23 | 10.0 | 14.0 | 0.09 | 0.81 | 0.80 | 95 | 1008.3 |
| 20260506114615 | 46 | 23 | 6.0 | 7.0 | 0.09 | 0.79 | 0.78 | 95 | 1008.3 |
| 20260506113615 | 46 | 0 | 6.0 | 12.0 | 0.09 | 0.79 | 0.77 | 95 | 1008.1 |
| 20260506112615 | 46 | 23 | 7.0 | 11.0 | 0.08 | 0.77 | 0.75 | 95 | 1008.0 |
| 20260506111615 | 46 | 45 | 11.0 | 15.0 | 0.09 | 0.76 | 0.74 | 95 | 1008.0 |
| 20260506110615 | 46 | 45 | 9.0 | 13.0 | 0.08 | 0.74 | 0.72 | 95 | 1007.9 |
| 20260506105617 | 46 | 45 | 6.0 | 10.0 | 0.09 | 0.73 | 0.71 | 95 | 1007.9 |
| 20260506104617 | 46 | 45 | 6.0 | 8.0 | 0.08 | 0.71 | 0.69 | 95 | 1007.9 |
| 20260506103617 | 46 | 45 | 7.0 | 11.0 | 0.07 | 0.70 | 0.68 | 95 | 1007.9 |
| 20260506102617 | 45 | 0 | 5.0 | 7.0 | 0.07 | 0.69 | 0.67 | 95 | 1007.8 |
| 20260506101617 | 46 | 0 | 7.0 | 11.0 | 0.05 | 0.67 | 0.65 | 95 | 1007.8 |
| 20260506100617 | 46 | 23 | 6.0 | 10.0 | 0.05 | 0.66 | 0.64 | 95 | 1007.7 |
| 20260506095617 | 46 | 45 | 5.0 | 7.0 | 0.03 | 0.64 | 0.62 | 95 | 1007.7 |
| 20260506094617 | 45 | 23 | 6.0 | 7.0 | 0.03 | 0.63 | 0.61 | 95 | 1007.7 |
| 20260506093617 | 45 | 23 | 5.0 | 8.0 | 0.03 | 0.63 | 0.61 | 95 | 1007.5 |
| 20260506092617 | 44 | 23 | 5.0 | 7.0 | 0.04 | 0.62 | 0.60 | 95 | 1007.4 |